Warm Springs, Virginia
Current Conditions -  °F | °C
As of 4:35 AM on Sunday 26 Oct 2014 (Local Time) from KHSP Reporting Station
Broken Clouds Broken Clouds  
Wind Chill: 52°   Ceiling: 3500
Heat Index: 52°   Visibility: 10mi
Dew Point: 41°   Wind: 18mph
Humidity: 65%   Direction: 290°WNW
Pressure: 29.79"   Gusts: 31mph
Location:  38.05°N, 79.79°W
Report Text: KHSP 260835Z AUTO 29016G27KT 10SM SCT029 BKN035 11/05 A2979 RMK AO2 T01120049
Loading
Personal Weather Stations






























Interactive Weather Map
Tropical Storm Tracking
New forecast layout! Learn more

10-Day Weather Forecast

Advertisements
Track Severe Weather on mobile